Time;durP1;ratioP1;P1;durP2;ratioP2;P2;SDS_P1;SDS_P2;PMS_P1;PMS_P2;Temp;Humidity;BMP_temperature;BMP_pressure;BME280_temperature;BME280_humidity;BME280_pressure;Samples;Min_cycle;Max_cycle;Signal;HPM_P1;HPM_P2
2021/06/06 00:00:20;;;;;;;0.70;0.70;;;20.30;80.40;;;;;;5071376;28;26929;-64
2021/06/06 00:03:06;;;;;;;1.55;0.93;;;20.30;80.60;;;;;;5085689;28;27470;-64
2021/06/06 00:05:59;;;;;;;0.90;0.73;;;20.20;80.40;;;;;;5094457;28;26879;-64
2021/06/06 00:08:43;;;;;;;1.20;0.90;;;20.20;80.80;;;;;;5090814;28;27167;-64
2021/06/06 00:11:30;;;;;;;1.00;0.80;;;20.20;80.60;;;;;;5083480;28;27407;-64
2021/06/06 00:14:29;;;;;;;1.05;0.70;;;20.20;80.70;;;;;;5079381;28;27463;-64
2021/06/06 00:17:13;;;;;;;1.55;0.80;;;20.10;80.50;;;;;;5084969;28;27377;-65
2021/06/06 00:19:58;;;;;;;1.58;0.90;;;20.10;80.60;;;;;;5082667;28;27332;-64
2021/06/06 00:22:42;;;;;;;1.98;1.00;;;20.10;80.70;;;;;;5082253;28;27407;-70
2021/06/06 00:25:27;;;;;;;1.02;0.93;;;20.10;80.50;;;;;;5083594;28;27398;-65
2021/06/06 00:28:12;;;;;;;1.02;0.80;;;20.10;80.70;;;;;;5086680;28;27370;-64
2021/06/06 00:30:57;;;;;;;1.05;0.70;;;20.10;81.00;;;;;;5086900;28;27329;-64
2021/06/06 00:33:42;;;;;;;0.80;0.80;;;20.10;80.80;;;;;;5087281;28;27442;-64
2021/06/06 00:36:27;;;;;;;0.85;0.80;;;20.10;80.80;;;;;;5082996;28;27396;-64
2021/06/06 00:39:12;;;;;;;1.23;0.98;;;20.00;80.60;;;;;;5086797;28;27363;-65
2021/06/06 00:41:59;;;;;;;1.35;1.00;;;20.00;80.90;;;;;;5086064;28;27340;-64
2021/06/06 00:44:46;;;;;;;3.63;0.88;;;20.00;80.60;;;;;;5068792;28;27420;-64
2021/06/06 00:47:32;;;;;;;0.95;0.70;;;20.00;81.10;;;;;;5086831;28;27465;-64
2021/06/06 00:50:28;;;;;;;1.38;0.98;;;20.00;81.10;;;;;;5085233;28;27501;-64
2021/06/06 00:53:39;;;;;;;0.93;0.85;;;20.00;80.80;;;;;;5086681;28;27427;-70
2021/06/06 00:56:28;;;;;;;0.73;0.73;;;19.90;80.80;;;;;;5085838;28;27535;-64
2021/06/06 00:59:18;;;;;;;3.63;0.70;;;19.90;81.10;;;;;;5086443;28;26961;-65
2021/06/06 01:02:07;;;;;;;1.05;0.60;;;19.90;80.90;;;;;;5086587;28;27365;-64
2021/06/06 01:04:52;;;;;;;0.95;0.85;;;19.90;80.90;;;;;;5086518;28;27979;-64
2021/06/06 01:07:37;;;;;;;1.20;0.70;;;19.90;81.10;;;;;;5086098;28;27481;-64
2021/06/06 01:10:21;;;;;;;5.03;0.73;;;19.90;81.30;;;;;;5085653;28;27415;-64
2021/06/06 01:13:18;;;;;;;1.42;0.70;;;19.80;81.30;;;;;;5082030;28;27486;-65
2021/06/06 01:16:08;;;;;;;1.00;0.50;;;19.80;81.30;;;;;;5086166;28;27574;-65
2021/06/06 01:18:55;;;;;;;0.60;0.60;;;19.80;81.30;;;;;;5082362;28;27438;-65
2021/06/06 01:22:01;;;;;;;0.82;0.60;;;19.80;81.50;;;;;;5085674;28;27430;-65
2021/06/06 01:24:51;;;;;;;1.45;0.90;;;19.70;82.50;;;;;;5082309;28;27493;-64
2021/06/06 01:27:39;;;;;;;0.75;0.70;;;19.80;81.40;;;;;;5086132;28;27891;-65
2021/06/06 01:30:29;;;;;;;1.05;0.68;;;19.70;81.80;;;;;;5084147;28;27493;-64
2021/06/06 01:33:39;;;;;;;1.58;0.60;;;19.70;82.10;;;;;;5085625;28;27337;-64
2021/06/06 01:36:36;;;;;;;2.58;0.95;;;19.70;81.80;;;;;;5085782;28;27391;-64
2021/06/06 01:39:45;;;;;;;0.68;0.68;;;19.70;82.10;;;;;;5082997;28;27439;-64
2021/06/06 01:42:36;;;;;;;1.02;0.80;;;19.70;81.90;;;;;;5081889;28;27380;-64
2021/06/06 01:45:44;;;;;;;1.10;0.80;;;19.70;82.20;;;;;;5084834;28;27494;-64
2021/06/06 01:48:30;;;;;;;1.58;0.60;;;19.60;81.80;;;;;;5067757;28;27382;-64
2021/06/06 01:51:25;;;;;;;2.15;0.60;;;19.70;82.50;;;;;;5084934;28;27426;-64
2021/06/06 01:54:12;;;;;;;3.35;0.60;;;19.60;82.20;;;;;;5081608;28;27418;-64
2021/06/06 01:56:57;;;;;;;1.67;0.80;;;19.60;82.50;;;;;;5067651;28;27330;-64
2021/06/06 01:59:50;;;;;;;2.63;0.75;;;19.60;82.30;;;;;;5084888;28;27420;-64
2021/06/06 02:02:35;;;;;;;1.58;0.70;;;19.60;82.60;;;;;;5085171;28;27380;-64
2021/06/06 02:05:21;;;;;;;2.13;0.98;;;19.60;82.80;;;;;;5085513;28;27423;-64
2021/06/06 02:08:11;;;;;;;2.20;0.52;;;19.60;82.50;;;;;;5085276;28;27399;-64
2021/06/06 02:11:15;;;;;;;2.25;0.60;;;19.60;82.50;;;;;;5081109;28;27471;-65
2021/06/06 02:14:05;;;;;;;0.50;0.50;;;19.60;82.50;;;;;;5099478;27;28035;-64
2021/06/06 02:16:57;;;;;;;0.60;0.60;;;19.60;82.70;;;;;;5081389;28;27386;-66
2021/06/06 02:19:53;;;;;;;1.73;1.00;;;19.60;82.30;;;;;;5085155;28;27424;-64
2021/06/06 02:22:44;;;;;;;3.00;0.60;;;19.60;82.50;;;;;;5081267;28;27338;-70
2021/06/06 02:25:29;;;;;;;1.83;0.50;;;19.60;82.80;;;;;;5066811;28;27845;-64
2021/06/06 02:28:31;;;;;;;0.65;0.65;;;19.50;82.90;;;;;;5098172;27;27482;-70
2021/06/06 02:31:41;;;;;;;0.60;0.60;;;19.50;83.00;;;;;;5067034;28;27446;-64
2021/06/06 02:34:31;;;;;;;1.15;0.73;;;19.50;82.80;;;;;;5080852;28;27008;-64
2021/06/06 02:37:25;;;;;;;1.33;0.80;;;19.50;83.00;;;;;;5083758;28;27339;-65
2021/06/06 02:40:19;;;;;;;0.82;0.77;;;19.50;83.00;;;;;;5083944;28;27354;-65
2021/06/06 02:43:15;;;;;;;1.08;0.98;;;19.50;83.30;;;;;;5080971;28;27329;-64
2021/06/06 02:46:01;;;;;;;1.35;0.70;;;19.50;83.30;;;;;;5080940;28;27356;-65
2021/06/06 02:48:50;;;;;;;0.88;0.60;;;19.50;83.30;;;;;;5097973;27;27844;-65
2021/06/06 02:51:49;;;;;;;1.05;0.65;;;19.50;83.30;;;;;;5067115;28;27328;-64
2021/06/06 02:54:51;;;;;;;1.00;0.90;;;19.50;83.40;;;;;;5084586;28;27372;-65
2021/06/06 02:57:48;;;;;;;1.15;0.80;;;19.40;83.30;;;;;;5067337;28;27314;-65
2021/06/06 03:00:37;;;;;;;1.55;0.90;;;19.40;83.60;;;;;;5081286;28;27471;-64
2021/06/06 03:03:26;;;;;;;2.10;0.77;;;19.40;83.70;;;;;;5080564;28;27379;-69
2021/06/06 03:06:53;;;;;;;2.10;0.90;;;19.40;83.70;;;;;;5080476;28;27559;-65
2021/06/06 03:09:38;;;;;;;1.38;0.75;;;19.40;84.00;;;;;;5081419;28;27486;-65
2021/06/06 03:12:25;;;;;;;1.02;0.90;;;19.30;84.00;;;;;;5083250;28;27364;-64
2021/06/06 03:15:14;;;;;;;0.73;0.70;;;19.30;84.00;;;;;;5083634;28;27441;-66
2021/06/06 03:18:01;;;;;;;5.97;1.00;;;19.30;84.20;;;;;;5080255;28;27340;-64
2021/06/06 03:20:51;;;;;;;0.75;0.60;;;19.30;84.30;;;;;;5083264;28;27482;-64
2021/06/06 03:23:36;;;;;;;3.05;0.80;;;19.20;84.20;;;;;;5083651;28;27404;-65
2021/06/06 03:26:22;;;;;;;0.70;0.70;;;19.20;84.20;;;;;;5066285;28;27345;-65
2021/06/06 03:29:15;;;;;;;1.05;0.60;;;19.20;84.30;;;;;;5067571;28;27605;-66
2021/06/06 03:32:07;;;;;;;0.63;0.63;;;19.20;84.20;;;;;;5065771;28;27392;-65
2021/06/06 03:34:52;;;;;;;1.08;0.70;;;19.10;84.60;;;;;;5065868;28;27403;-65
2021/06/06 03:37:38;;;;;;;1.17;0.70;;;19.20;84.70;;;;;;5083767;28;27527;-65
2021/06/06 03:40:40;;;;;;;2.28;0.80;;;19.20;84.60;;;;;;5083860;28;27455;-65
2021/06/06 03:43:30;;;;;;;0.98;0.80;;;19.10;84.70;;;;;;5079712;28;27347;-64
2021/06/06 03:46:15;;;;;;;1.17;0.70;;;19.10;84.70;;;;;;5083881;28;27981;-64
2021/06/06 03:49:00;;;;;;;1.35;1.05;;;19.10;85.20;;;;;;5083867;28;27361;-64
2021/06/06 03:51:46;;;;;;;0.75;0.75;;;19.10;84.90;;;;;;5083751;28;27345;-64
2021/06/06 03:54:30;;;;;;;0.60;0.60;;;19.10;85.20;;;;;;5083571;28;27333;-64
2021/06/06 03:57:15;;;;;;;1.08;0.80;;;19.10;85.30;;;;;;5082881;28;27346;-64
2021/06/06 04:00:06;;;;;;;2.58;0.82;;;19.10;85.30;;;;;;5079662;28;27328;-64
2021/06/06 04:03:00;;;;;;;0.60;0.60;;;19.10;85.30;;;;;;5083186;28;27334;-64
2021/06/06 04:05:48;;;;;;;0.98;0.88;;;19.10;85.20;;;;;;5079398;28;27411;-64
2021/06/06 04:08:51;;;;;;;2.42;1.00;;;19.10;85.30;;;;;;5083370;28;27427;-64
2021/06/06 04:11:37;;;;;;;3.28;1.00;;;19.10;85.30;;;;;;5083183;28;27640;-64
2021/06/06 04:14:28;;;;;;;1.00;0.90;;;19.10;85.30;;;;;;5065845;28;27429;-64
2021/06/06 04:17:18;;;;;;;0.80;0.80;;;19.00;85.50;;;;;;5083241;28;27462;-71
2021/06/06 04:20:04;;;;;;;2.03;0.82;;;19.10;85.30;;;;;;5083459;28;27535;-65
2021/06/06 04:22:51;;;;;;;1.20;0.85;;;19.10;85.60;;;;;;5083429;28;27370;-71
2021/06/06 04:25:36;;;;;;;1.10;0.98;;;19.00;85.70;;;;;;5080311;28;26926;-64
2021/06/06 04:28:22;;;;;;;1.02;0.93;;;19.00;85.30;;;;;;5082601;28;27317;-71
2021/06/06 04:31:11;;;;;;;0.80;0.80;;;19.00;85.50;;;;;;5065177;28;27431;-65
2021/06/06 04:33:56;;;;;;;0.70;0.68;;;19.00;85.50;;;;;;5082546;28;27501;-64
2021/06/06 04:36:42;;;;;;;3.00;1.05;;;19.00;85.50;;;;;;5079249;28;27419;-65
2021/06/06 04:39:28;;;;;;;0.88;0.80;;;19.00;85.60;;;;;;5065360;28;27412;-64
2021/06/06 04:42:17;;;;;;;1.48;1.05;;;19.00;85.30;;;;;;5083107;28;27452;-64
2021/06/06 04:45:03;;;;;;;0.93;0.88;;;19.00;85.80;;;;;;5079032;28;27347;-66
2021/06/06 04:47:49;;;;;;;2.63;1.05;;;19.00;85.90;;;;;;5079163;28;27371;-64
2021/06/06 04:50:37;;;;;;;1.75;0.77;;;19.00;86.10;;;;;;5079394;28;27614;-64
2021/06/06 04:53:23;;;;;;;1.25;0.93;;;19.00;86.20;;;;;;5082943;28;27419;-64
2021/06/06 04:56:08;;;;;;;0.80;0.80;;;19.00;86.00;;;;;;5082132;28;27470;-64
2021/06/06 04:58:55;;;;;;;3.58;1.00;;;19.00;86.30;;;;;;5082321;28;27431;-64
2021/06/06 05:01:40;;;;;;;1.40;0.95;;;19.00;86.30;;;;;;5082977;28;27417;-64
2021/06/06 05:04:27;;;;;;;3.03;0.90;;;19.00;86.20;;;;;;5078874;28;27312;-64
2021/06/06 05:07:12;;;;;;;1.63;0.80;;;19.00;86.40;;;;;;5078851;28;27349;-64
2021/06/06 05:10:00;;;;;;;0.93;0.82;;;19.00;86.20;;;;;;5078589;28;27316;-64
2021/06/06 05:12:49;;;;;;;1.10;1.00;;;19.00;86.40;;;;;;5083649;28;27482;-64
2021/06/06 05:15:35;;;;;;;0.73;0.73;;;19.00;86.40;;;;;;5086308;28;27493;-64
2021/06/06 05:18:22;;;;;;;0.57;0.57;;;19.10;86.20;;;;;;5083668;28;27375;-64
2021/06/06 05:21:06;;;;;;;1.92;0.70;;;19.10;87.20;;;;;;5086003;28;27324;-64
2021/06/06 05:23:53;;;;;;;0.80;0.70;;;19.00;86.70;;;;;;5085428;28;27339;-65
2021/06/06 05:26:38;;;;;;;0.82;0.80;;;19.00;86.50;;;;;;5082050;28;27323;-64
2021/06/06 05:29:23;;;;;;;0.70;0.68;;;19.10;86.70;;;;;;5085089;28;27393;-65
2021/06/06 05:32:08;;;;;;;1.67;0.60;;;19.10;86.60;;;;;;5085614;28;27395;-65
2021/06/06 05:34:53;;;;;;;0.52;0.52;;;19.00;86.60;;;;;;5085508;28;27386;-64
2021/06/06 05:37:37;;;;;;;1.40;1.08;;;19.00;86.60;;;;;;5084848;28;27337;-66
2021/06/06 05:40:23;;;;;;;2.08;0.70;;;19.10;86.70;;;;;;5085875;28;27317;-65
2021/06/06 05:43:08;;;;;;;1.10;0.57;;;19.10;86.80;;;;;;5085705;28;27399;-65
2021/06/06 05:45:54;;;;;;;0.50;0.50;;;19.00;86.80;;;;;;5085198;28;27441;-65
2021/06/06 05:48:38;;;;;;;0.60;0.40;;;19.00;87.00;;;;;;5085709;28;27328;-66
2021/06/06 05:51:23;;;;;;;0.65;0.55;;;19.00;87.10;;;;;;5085478;28;27439;-64
2021/06/06 05:54:21;;;;;;;1.17;0.60;;;19.10;87.00;;;;;;5085792;28;27419;-64
2021/06/06 05:57:07;;;;;;;0.82;0.60;;;19.10;87.10;;;;;;5085728;28;27412;-64
2021/06/06 05:59:51;;;;;;;0.40;0.40;;;19.10;87.00;;;;;;5085399;28;27414;-64
2021/06/06 06:02:36;;;;;;;0.40;0.40;;;19.10;86.70;;;;;;5085551;28;27488;-64
2021/06/06 06:05:20;;;;;;;0.40;0.40;;;19.10;87.00;;;;;;5081569;28;27426;-64
2021/06/06 06:08:21;;;;;;;0.50;0.43;;;19.10;87.00;;;;;;5084744;28;27502;-64
2021/06/06 06:11:07;;;;;;;0.43;0.40;;;19.10;86.60;;;;;;5080737;28;27391;-64
2021/06/06 06:13:52;;;;;;;0.50;0.50;;;19.10;86.90;;;;;;5084357;28;27368;-64
2021/06/06 06:16:41;;;;;;;0.63;0.57;;;19.10;87.00;;;;;;5085512;28;27448;-64
2021/06/06 06:19:25;;;;;;;0.98;0.60;;;19.10;86.70;;;;;;5084443;28;27422;-64
2021/06/06 06:22:10;;;;;;;1.70;0.50;;;19.10;86.90;;;;;;5084963;28;27973;-69
2021/06/06 06:24:55;;;;;;;0.95;0.52;;;19.10;86.80;;;;;;5083854;28;27348;-64
2021/06/06 06:27:39;;;;;;;0.63;0.40;;;19.10;86.60;;;;;;5084243;28;27348;-65
2021/06/06 06:30:37;;;;;;;0.50;0.50;;;19.10;87.00;;;;;;5084672;28;27468;-65
2021/06/06 06:33:22;;;;;;;1.55;0.43;;;19.10;86.90;;;;;;5084929;28;27524;-65
2021/06/06 06:36:08;;;;;;;0.80;0.45;;;19.10;87.00;;;;;;5084832;28;27475;-66
2021/06/06 06:38:52;;;;;;;0.75;0.40;;;19.10;87.10;;;;;;5084809;28;27500;-64
2021/06/06 06:41:38;;;;;;;0.73;0.30;;;19.10;87.20;;;;;;5081753;28;27417;-67
2021/06/06 06:44:22;;;;;;;0.88;0.50;;;19.00;86.80;;;;;;5084605;28;27461;-65
2021/06/06 06:47:09;;;;;;;0.50;0.50;;;19.00;86.80;;;;;;5084692;28;27524;-66
2021/06/06 06:49:53;;;;;;;0.65;0.55;;;19.00;86.90;;;;;;5084946;28;27411;-65
2021/06/06 06:52:38;;;;;;;0.60;0.50;;;19.00;87.20;;;;;;5085344;28;27489;-66
2021/06/06 06:55:22;;;;;;;1.70;0.70;;;19.00;85.80;;;;;;5085522;28;27411;-65
2021/06/06 06:58:07;;;;;;;1.30;0.60;;;19.00;86.80;;;;;;5085477;28;27527;-71
2021/06/06 07:00:53;;;;;;;3.83;0.52;;;19.00;87.10;;;;;;5085213;28;27427;-65
2021/06/06 07:03:38;;;;;;;1.98;0.75;;;19.00;87.80;;;;;;5085107;28;27447;-66
2021/06/06 07:06:22;;;;;;;0.60;0.60;;;19.00;88.30;;;;;;5085008;28;27466;-65
2021/06/06 07:09:07;;;;;;;0.70;0.60;;;19.00;84.90;;;;;;5084815;28;27546;-70
2021/06/06 07:11:53;;;;;;;1.08;0.90;;;19.00;85.30;;;;;;5085192;28;27481;-65
2021/06/06 07:14:38;;;;;;;1.13;0.68;;;19.00;84.70;;;;;;5084902;28;27394;-65
2021/06/06 07:17:23;;;;;;;3.20;0.70;;;19.00;84.30;;;;;;5084389;28;27422;-65
2021/06/06 07:20:09;;;;;;;2.47;0.63;;;19.00;85.00;;;;;;5080791;28;27469;-65
2021/06/06 07:23:02;;;;;;;1.17;0.70;;;18.90;84.50;;;;;;5084859;28;27426;-65
2021/06/06 07:25:49;;;;;;;0.60;0.60;;;18.90;84.80;;;;;;5084300;28;27474;-65
2021/06/06 07:28:34;;;;;;;0.95;0.68;;;19.00;85.00;;;;;;5084745;28;27470;-65
2021/06/06 07:31:19;;;;;;;1.15;0.60;;;18.90;85.20;;;;;;5084817;28;27420;-65
2021/06/06 07:34:03;;;;;;;0.88;0.65;;;18.90;85.40;;;;;;5084306;28;27461;-65
2021/06/06 07:36:51;;;;;;;0.90;0.70;;;18.90;85.10;;;;;;5084258;28;27442;-65
2021/06/06 07:39:35;;;;;;;1.05;0.60;;;18.90;84.70;;;;;;5084568;28;27966;-65
2021/06/06 07:42:19;;;;;;;1.40;0.80;;;18.90;85.20;;;;;;5084035;28;27411;-65
2021/06/06 07:45:06;;;;;;;0.65;0.65;;;18.90;84.40;;;;;;5084590;28;27494;-65
2021/06/06 07:47:50;;;;;;;0.82;0.77;;;18.90;84.70;;;;;;5084476;28;27360;-65
2021/06/06 07:50:38;;;;;;;1.92;0.93;;;18.90;84.50;;;;;;5084407;28;27316;-64
2021/06/06 07:53:23;;;;;;;1.15;0.80;;;18.80;84.80;;;;;;5084407;28;27351;-65
2021/06/06 07:56:08;;;;;;;1.35;0.90;;;18.80;84.90;;;;;;5084696;28;27399;-65
2021/06/06 07:58:53;;;;;;;2.60;0.90;;;18.80;85.30;;;;;;5084585;28;27361;-65
2021/06/06 08:01:38;;;;;;;2.13;0.98;;;18.80;85.50;;;;;;5083965;28;27358;-65
2021/06/06 08:04:22;;;;;;;2.35;1.20;;;18.80;85.50;;;;;;5083777;28;27402;-65
2021/06/06 08:07:07;;;;;;;1.98;1.23;;;18.80;85.70;;;;;;5084224;28;27333;-65
2021/06/06 08:09:51;;;;;;;3.10;1.20;;;18.80;85.80;;;;;;5084463;28;27302;-65
2021/06/06 08:12:35;;;;;;;6.30;1.77;;;18.80;85.90;;;;;;5083019;28;27407;-65
2021/06/06 08:15:20;;;;;;;3.08;1.20;;;18.80;85.60;;;;;;5083279;28;27512;-65
2021/06/06 08:18:07;;;;;;;3.25;1.10;;;18.80;86.10;;;;;;5084091;28;27477;-65
2021/06/06 08:20:57;;;;;;;3.13;1.45;;;18.80;86.40;;;;;;5084069;28;26956;-65
2021/06/06 08:23:42;;;;;;;1.92;1.30;;;18.80;85.90;;;;;;5084177;28;27423;-65
2021/06/06 08:26:26;;;;;;;4.70;1.60;;;18.90;85.90;;;;;;5084135;28;27465;-65
2021/06/06 08:29:11;;;;;;;3.25;1.67;;;18.90;85.40;;;;;;5080517;28;28114;-65
2021/06/06 08:31:56;;;;;;;4.32;1.70;;;18.90;85.80;;;;;;5083721;28;27422;-65
2021/06/06 08:34:41;;;;;;;2.55;1.73;;;18.90;86.10;;;;;;5079761;28;27416;-65
2021/06/06 08:37:25;;;;;;;2.38;2.15;;;18.90;85.80;;;;;;5083043;28;27367;-65
2021/06/06 08:40:11;;;;;;;2.35;1.92;;;18.90;85.50;;;;;;5084120;28;27368;-65
2021/06/06 08:42:56;;;;;;;3.65;2.08;;;18.90;86.10;;;;;;5079717;28;27463;-66
2021/06/06 08:45:47;;;;;;;3.45;2.30;;;18.90;86.40;;;;;;5097688;27;27984;-65
2021/06/06 08:48:32;;;;;;;4.50;2.33;;;18.90;85.80;;;;;;5088118;28;27441;-66
2021/06/06 08:51:35;;;;;;;5.45;2.88;;;18.90;85.80;;;;;;5088618;28;27332;-65
2021/06/06 08:54:36;;;;;;;9.85;5.03;;;18.90;86.40;;;;;;5090876;28;27445;-66
2021/06/06 08:57:59;;;;;;;6.68;4.28;;;18.90;86.10;;;;;;5100750;27;27833;-66
2021/06/06 09:00:49;;;;;;;5.25;3.13;;;18.90;85.70;;;;;;5086271;28;27466;-65
2021/06/06 09:03:34;;;;;;;8.02;4.53;;;18.90;87.20;;;;;;5089968;28;27525;-66
2021/06/06 09:06:24;;;;;;;9.25;4.78;;;18.90;88.70;;;;;;5087163;28;27416;-66
2021/06/06 09:09:09;;;;;;;4.78;3.35;;;18.90;86.80;;;;;;5088501;28;27108;-66
2021/06/06 09:12:01;;;;;;;8.05;4.47;;;19.00;87.30;;;;;;5092278;28;27344;-64
2021/06/06 09:14:49;;;;;;;9.05;4.93;;;19.00;87.80;;;;;;5109776;28;26926;-65
2021/06/06 09:17:44;;;;;;;7.93;4.00;;;19.10;87.80;;;;;;5088086;28;27362;-66
2021/06/06 09:20:39;;;;;;;8.15;4.85;;;19.10;89.30;;;;;;5103555;28;27159;-71
2021/06/06 09:23:29;;;;;;;10.13;5.30;;;19.20;88.40;;;;;;5105004;28;26793;-70
2021/06/06 09:26:25;;;;;;;11.90;6.20;;;19.20;89.00;;;;;;5095316;28;27425;-72
2021/06/06 09:29:22;;;;;;;10.10;4.88;;;19.30;86.60;;;;;;5083279;28;27406;-65
2021/06/06 09:32:13;;;;;;;9.13;5.88;;;19.30;88.40;;;;;;5086036;28;27852;-64
2021/06/06 09:35:06;;;;;;;12.23;5.80;;;19.40;88.50;;;;;;5086510;28;27430;-65
2021/06/06 09:38:10;;;;;;;10.48;5.97;;;19.40;87.80;;;;;;5086596;28;27414;-64
2021/06/06 09:40:55;;;;;;;10.73;6.63;;;19.40;88.70;;;;;;5086775;28;27356;-64
2021/06/06 09:43:40;;;;;;;12.18;6.85;;;19.50;88.70;;;;;;5086507;28;27377;-65
2021/06/06 09:46:24;;;;;;;11.25;7.18;;;19.50;89.00;;;;;;5085715;28;27390;-64
2021/06/06 09:49:36;;;;;;;11.07;6.32;;;19.50;89.00;;;;;;5086914;28;27332;-65
2021/06/06 09:52:27;;;;;;;9.48;6.05;;;19.60;88.40;;;;;;5086061;28;27439;-66
2021/06/06 09:55:14;;;;;;;9.80;6.50;;;19.60;88.50;;;;;;5086952;28;27486;-65
2021/06/06 09:58:18;;;;;;;8.55;5.95;;;19.70;88.90;;;;;;5082271;28;27392;-65
2021/06/06 10:01:09;;;;;;;12.40;7.85;;;19.80;89.00;;;;;;5086508;28;27474;-65
2021/06/06 10:04:09;;;;;;;12.50;7.38;;;19.80;89.20;;;;;;5085813;28;27392;-65
2021/06/06 10:06:54;;;;;;;12.93;8.13;;;19.80;89.00;;;;;;5072225;28;27884;-66
2021/06/06 10:09:39;;;;;;;12.73;8.15;;;19.80;88.80;;;;;;5085183;28;27458;-65
2021/06/06 10:12:27;;;;;;;13.68;8.98;;;19.90;88.90;;;;;;5084980;28;27416;-65
2021/06/06 10:15:19;;;;;;;14.38;9.52;;;19.90;88.30;;;;;;5085634;28;27328;-66
2021/06/06 10:18:12;;;;;;;10.90;7.40;;;19.90;87.50;;;;;;5085843;28;27411;-65
2021/06/06 10:21:08;;;;;;;12.43;8.90;;;19.90;88.00;;;;;;5086060;28;27465;-65
2021/06/06 10:23:58;;;;;;;12.30;8.05;;;19.90;88.30;;;;;;5085409;28;27450;-65
2021/06/06 10:26:52;;;;;;;13.63;8.43;;;19.90;88.60;;;;;;5085070;28;27352;-65
2021/06/06 10:29:40;;;;;;;10.52;7.25;;;19.90;88.00;;;;;;5085250;28;27464;-65
2021/06/06 10:32:43;;;;;;;11.23;7.43;;;20.00;88.00;;;;;;5085711;28;27350;-64
2021/06/06 10:35:29;;;;;;;9.18;6.85;;;20.00;87.50;;;;;;5085704;28;27471;-65
2021/06/06 10:38:15;;;;;;;11.13;7.82;;;20.00;87.80;;;;;;5085338;28;27370;-72
2021/06/06 10:41:08;;;;;;;10.65;6.50;;;20.00;88.30;;;;;;5085602;28;27342;-65
2021/06/06 10:43:59;;;;;;;8.82;6.45;;;20.10;88.30;;;;;;5085840;28;27331;-65
2021/06/06 10:46:53;;;;;;;10.15;6.03;;;20.10;88.20;;;;;;5085210;28;27431;-65
2021/06/06 10:49:38;;;;;;;7.15;5.63;;;20.10;88.20;;;;;;5085573;28;27454;-65
2021/06/06 10:52:26;;;;;;;7.43;5.43;;;20.10;87.30;;;;;;5084689;28;27957;-65
2021/06/06 10:55:22;;;;;;;7.55;5.43;;;20.10;87.50;;;;;;5085773;28;27477;-65
2021/06/06 10:58:16;;;;;;;7.90;5.88;;;20.10;87.60;;;;;;5085765;28;27446;-65
2021/06/06 11:01:21;;;;;;;7.57;5.47;;;20.20;87.60;;;;;;5084832;28;27394;-66
2021/06/06 11:04:14;;;;;;;6.03;5.10;;;20.20;86.60;;;;;;5085678;28;27913;-72
2021/06/06 11:07:30;;;;;;;8.02;6.30;;;20.20;86.20;;;;;;5085755;28;27474;-65
2021/06/06 11:10:20;;;;;;;8.98;6.20;;;20.30;86.70;;;;;;5082915;28;27653;-66
2021/06/06 11:13:28;;;;;;;7.50;5.95;;;20.40;87.10;;;;;;5084385;28;27580;-66
2021/06/06 11:16:29;;;;;;;8.18;6.07;;;20.50;87.80;;;;;;5084581;28;27426;-67
2021/06/06 11:19:20;;;;;;;6.97;5.00;;;20.60;88.40;;;;;;5085230;28;27375;-66
2021/06/06 11:22:07;;;;;;;7.97;5.85;;;20.80;89.00;;;;;;5085173;28;27485;-65
2021/06/06 11:24:53;;;;;;;7.82;6.47;;;20.90;89.90;;;;;;5084357;28;26931;-67
2021/06/06 11:27:53;;;;;;;9.52;6.30;;;21.00;90.20;;;;;;5084820;28;27408;-65
2021/06/06 11:30:40;;;;;;;10.10;7.32;;;21.10;90.30;;;;;;5083999;28;27403;-65
2021/06/06 11:33:43;;;;;;;9.05;7.25;;;21.20;90.00;;;;;;5084396;28;27474;-66
2021/06/06 11:36:36;;;;;;;9.82;7.18;;;21.30;89.10;;;;;;5084681;28;27407;-65
2021/06/06 11:39:32;;;;;;;9.85;6.80;;;21.20;87.70;;;;;;5083975;28;27817;-65
2021/06/06 11:42:22;;;;;;;8.30;6.22;;;21.20;86.60;;;;;;5080468;28;27472;-71
2021/06/06 11:45:15;;;;;;;7.78;6.20;;;21.20;86.50;;;;;;5084873;28;27324;-65
2021/06/06 11:48:06;;;;;;;10.90;8.25;;;21.10;86.20;;;;;;5084509;28;27405;-65
2021/06/06 11:50:52;;;;;;;11.43;9.07;;;21.10;86.40;;;;;;5098815;27;27335;-65
2021/06/06 11:53:41;;;;;;;11.57;8.07;;;21.10;86.00;;;;;;5084395;28;27411;-66
2021/06/06 11:56:33;;;;;;;9.23;7.25;;;21.00;85.70;;;;;;5083861;28;27483;-66
2021/06/06 11:59:39;;;;;;;12.68;9.45;;;21.00;86.00;;;;;;5084365;28;27399;-66
2021/06/06 12:02:27;;;;;;;11.00;8.50;;;21.00;85.00;;;;;;5083741;28;28058;-66
2021/06/06 12:05:30;;;;;;;14.85;10.63;;;21.10;84.60;;;;;;5084058;28;27378;-66
2021/06/06 12:08:16;;;;;;;15.15;11.38;;;21.10;83.30;;;;;;5084553;28;27415;-66
2021/06/06 12:11:05;;;;;;;12.75;8.98;;;21.10;83.80;;;;;;5084181;28;27403;-66
2021/06/06 12:13:52;;;;;;;15.20;11.07;;;21.10;84.20;;;;;;5084546;28;27371;-66
2021/06/06 12:16:44;;;;;;;13.07;9.93;;;21.20;84.10;;;;;;5084215;28;27412;-67
2021/06/06 12:19:44;;;;;;;13.32;10.70;;;21.20;83.90;;;;;;5084379;28;27380;-66
2021/06/06 12:22:31;;;;;;;16.73;12.13;;;21.30;84.20;;;;;;5084850;28;27458;-66
2021/06/06 12:25:17;;;;;;;16.40;11.07;;;21.30;84.20;;;;;;5087975;28;27352;-66
2021/06/06 12:28:28;;;;;;;17.75;11.43;;;21.30;84.00;;;;;;5087907;28;27323;-66
2021/06/06 12:31:32;;;;;;;18.73;13.20;;;21.40;84.20;;;;;;5084491;28;27395;-73
2021/06/06 12:34:23;;;;;;;17.10;12.05;;;21.40;84.30;;;;;;5087493;28;27661;-66
2021/06/06 12:37:11;;;;;;;18.33;13.65;;;21.50;84.50;;;;;;5087642;28;27356;-67
2021/06/06 12:39:57;;;;;;;23.63;15.43;;;21.60;85.30;;;;;;5101310;27;27416;-66
2021/06/06 12:42:43;;;;;;;20.35;13.07;;;21.60;84.70;;;;;;5087753;28;27533;-67
2021/06/06 12:45:28;;;;;;;23.73;16.38;;;21.60;83.90;;;;;;5085158;28;27476;-67
2021/06/06 12:48:26;;;;;;;22.75;15.45;;;21.60;83.50;;;;;;5083483;28;27965;-65
2021/06/06 12:51:23;;;;;;;19.65;14.10;;;21.60;83.90;;;;;;5087431;28;27473;-66
2021/06/06 12:54:18;;;;;;;17.35;12.68;;;21.60;83.20;;;;;;5101574;27;27393;-72
2021/06/06 12:57:18;;;;;;;18.08;12.43;;;21.60;82.60;;;;;;5087117;28;27383;-65
2021/06/06 13:00:24;;;;;;;16.17;11.77;;;21.50;82.50;;;;;;5086669;28;27947;-65
2021/06/06 13:03:27;;;;;;;15.93;11.18;;;21.50;83.10;;;;;;5086619;28;27462;-65
2021/06/06 13:06:27;;;;;;;15.80;11.55;;;21.50;83.20;;;;;;5087408;28;27425;-65
2021/06/06 13:09:27;;;;;;;18.00;12.88;;;21.50;83.80;;;;;;5087170;28;27371;-65
2021/06/06 13:12:11;;;;;;;18.98;12.85;;;21.50;84.20;;;;;;5086934;28;27829;-65
2021/06/06 13:14:56;;;;;;;18.38;13.70;;;21.50;83.00;;;;;;5087135;28;27395;-65
2021/06/06 13:17:43;;;;;;;21.60;14.88;;;21.50;82.30;;;;;;5087110;28;27364;-65
2021/06/06 13:20:46;;;;;;;18.75;13.05;;;21.50;81.60;;;;;;5087045;28;27448;-65
2021/06/06 13:23:36;;;;;;;18.63;13.77;;;21.50;81.80;;;;;;5085996;28;27426;-65
2021/06/06 13:26:22;;;;;;;19.45;13.63;;;21.50;82.50;;;;;;5082613;28;27505;-65
2021/06/06 13:29:09;;;;;;;16.08;11.95;;;21.40;82.30;;;;;;5085320;28;27406;-65
2021/06/06 13:31:53;;;;;;;22.00;14.48;;;21.40;82.80;;;;;;5086484;28;27332;-65
2021/06/06 13:34:38;;;;;;;17.55;12.23;;;21.30;82.20;;;;;;5086203;28;27844;-65
2021/06/06 13:37:25;;;;;;;19.13;13.27;;;21.30;82.40;;;;;;5086768;28;27383;-65
2021/06/06 13:40:19;;;;;;;22.13;15.43;;;21.20;83.30;;;;;;5085661;28;27418;-65
2021/06/06 13:43:04;;;;;;;19.00;13.45;;;21.20;83.30;;;;;;5086687;28;27316;-65
2021/06/06 13:45:48;;;;;;;15.23;11.80;;;21.10;83.80;;;;;;5085500;28;27337;-66
2021/06/06 13:48:35;;;;;;;19.35;13.90;;;21.10;84.50;;;;;;5086597;28;27395;-67
2021/06/06 13:51:19;;;;;;;17.52;12.70;;;21.10;84.80;;;;;;5085555;28;27364;-66
2021/06/06 13:54:04;;;;;;;15.18;12.15;;;21.10;85.20;;;;;;5086542;28;27324;-66
2021/06/06 13:56:50;;;;;;;14.25;11.93;;;21.10;85.60;;;;;;5085765;28;27860;-65
2021/06/06 13:59:36;;;;;;;18.60;12.75;;;21.10;85.70;;;;;;5086085;28;27382;-65
2021/06/06 14:02:21;;;;;;;19.00;13.63;;;21.10;85.30;;;;;;5086147;28;27439;-66
2021/06/06 14:05:06;;;;;;;14.93;11.95;;;21.10;84.90;;;;;;5085522;28;27323;-65
2021/06/06 14:07:50;;;;;;;19.20;13.95;;;21.10;85.00;;;;;;5086224;28;27351;-65
2021/06/06 14:10:39;;;;;;;17.65;12.77;;;21.10;85.60;;;;;;5085935;28;27441;-65
2021/06/06 14:13:29;;;;;;;18.30;13.20;;;21.10;86.20;;;;;;5085990;28;27392;-65
2021/06/06 14:16:16;;;;;;;20.13;16.40;;;21.10;85.50;;;;;;5085861;28;27367;-65
2021/06/06 14:19:00;;;;;;;28.08;21.77;;;21.00;85.50;;;;;;5086080;28;27399;-65
2021/06/06 14:21:45;;;;;;;25.98;18.33;;;21.00;84.60;;;;;;5086092;28;27390;-65
2021/06/06 14:24:30;;;;;;;29.92;21.63;;;21.00;85.20;;;;;;5085773;28;27407;-65
2021/06/06 14:27:14;;;;;;;25.85;18.50;;;21.00;85.40;;;;;;5086016;28;26911;-65
2021/06/06 14:29:59;;;;;;;28.15;22.02;;;21.00;85.90;;;;;;5084954;28;27955;-72
2021/06/06 14:32:44;;;;;;;29.20;21.63;;;21.00;85.90;;;;;;5085428;28;27409;-65
2021/06/06 14:35:29;;;;;;;29.17;21.15;;;21.00;86.00;;;;;;5085365;28;27386;-71
2021/06/06 14:38:13;;;;;;;31.90;21.83;;;21.10;86.40;;;;;;5085602;28;27324;-65